sensor_id;sensor_type;location;lat;lon;timestamp;P1;P2;P0
64861;PMS5003;62652;42.274;-71.436;2023-06-22T00:00:00;1.37;1.37;0.60
64861;PMS5003;62652;42.274;-71.436;2023-06-22T00:01:00;1.10;1.10;0.60
64861;PMS5003;62652;42.274;-71.436;2023-06-22T00:02:00;1.30;1.30;1.00
64861;PMS5003;62652;42.274;-71.436;2023-06-22T00:03:01;1.37;1.37;0.37
64861;PMS5003;62652;42.274;-71.436;2023-06-22T00:04:00;1.07;1.07;0.40
64861;PMS5003;62652;42.274;-71.436;2023-06-22T00:05:00;1.30;1.00;0.90
64861;PMS5003;62652;42.274;-71.436;2023-06-22T00:06:00;0.03;0.00;0.00
64861;PMS5003;62652;42.274;-71.436;2023-06-22T00:07:00;0.90;0.90;0.00
64861;PMS5003;62652;42.274;-71.436;2023-06-22T00:08:02;1.00;1.00;0.43
64861;PMS5003;62652;42.274;-71.436;2023-06-22T00:09:00;0.53;0.33;0.27
64861;PMS5003;62652;42.274;-71.436;2023-06-22T00:10:00;0.97;0.97;0.10
64861;PMS5003;62652;42.274;-71.436;2023-06-22T00:11:00;1.07;1.07;1.00
64861;PMS5003;62652;42.274;-71.436;2023-06-22T00:12:00;0.03;0.03;0.00
64861;PMS5003;62652;42.274;-71.436;2023-06-22T00:13:00;0.87;0.87;0.10
64861;PMS5003;62652;42.274;-71.436;2023-06-22T00:14:01;0.43;0.43;0.10
64861;PMS5003;62652;42.274;-71.436;2023-06-22T00:15:00;0.20;0.20;0.00
64861;PMS5003;62652;42.274;-71.436;2023-06-22T00:16:00;1.00;1.00;0.57
64861;PMS5003;62652;42.274;-71.436;2023-06-22T00:17:00;0.90;0.90;0.20
64861;PMS5003;62652;42.274;-71.436;2023-06-22T00:18:00;1.17;1.17;0.40
64861;PMS5003;62652;42.274;-71.436;2023-06-22T00:19:00;1.50;1.50;0.63
64861;PMS5003;62652;42.274;-71.436;2023-06-22T00:20:00;1.00;1.00;0.43
64861;PMS5003;62652;42.274;-71.436;2023-06-22T00:21:00;0.70;0.70;0.00
64861;PMS5003;62652;42.274;-71.436;2023-06-22T00:22:00;0.20;0.10;0.00
64861;PMS5003;62652;42.274;-71.436;2023-06-22T00:23:00;0.20;0.03;0.00
64861;PMS5003;62652;42.274;-71.436;2023-06-22T00:24:00;0.90;0.90;0.37
64861;PMS5003;62652;42.274;-71.436;2023-06-22T00:25:01;0.03;0.03;0.00
64861;PMS5003;62652;42.274;-71.436;2023-06-22T00:26:00;0.70;0.70;0.27
64861;PMS5003;62652;42.274;-71.436;2023-06-22T00:27:00;1.30;1.00;0.53
64861;PMS5003;62652;42.274;-71.436;2023-06-22T00:28:01;0.90;0.90;0.90
64861;PMS5003;62652;42.274;-71.436;2023-06-22T00:29:00;1.33;0.97;0.00
64861;PMS5003;62652;42.274;-71.436;2023-06-22T00:30:00;1.27;1.27;0.20
64861;PMS5003;62652;42.274;-71.436;2023-06-22T00:31:00;0.83;0.83;0.20
64861;PMS5003;62652;42.274;-71.436;2023-06-22T00:32:00;0.87;0.87;0.87
64861;PMS5003;62652;42.274;-71.436;2023-06-22T00:33:00;0.80;0.80;0.00
64861;PMS5003;62652;42.274;-71.436;2023-06-22T00:34:00;0.00;0.00;0.00
64861;PMS5003;62652;42.274;-71.436;2023-06-22T00:35:00;0.00;0.00;0.00
64861;PMS5003;62652;42.274;-71.436;2023-06-22T00:36:01;0.00;0.00;0.00
64861;PMS5003;62652;42.274;-71.436;2023-06-22T00:37:00;0.87;0.87;0.53
64861;PMS5003;62652;42.274;-71.436;2023-06-22T00:38:00;0.43;0.43;0.00
64861;PMS5003;62652;42.274;-71.436;2023-06-22T00:39:00;1.87;1.00;0.80
64861;PMS5003;62652;42.274;-71.436;2023-06-22T00:40:00;0.33;0.33;0.00
64861;PMS5003;62652;42.274;-71.436;2023-06-22T00:41:00;0.90;0.90;0.67
64861;PMS5003;62652;42.274;-71.436;2023-06-22T00:42:00;1.70;1.07;0.50
64861;PMS5003;62652;42.274;-71.436;2023-06-22T00:43:00;1.30;1.00;0.07
64861;PMS5003;62652;42.274;-71.436;2023-06-22T00:44:00;0.90;0.90;0.30
64861;PMS5003;62652;42.274;-71.436;2023-06-22T00:45:00;1.87;1.87;0.87
64861;PMS5003;62652;42.274;-71.436;2023-06-22T00:46:00;0.93;0.93;0.93
64861;PMS5003;62652;42.274;-71.436;2023-06-22T00:47:01;1.83;1.17;0.33
64861;PMS5003;62652;42.274;-71.436;2023-06-22T00:48:00;1.10;1.10;0.20
64861;PMS5003;62652;42.274;-71.436;2023-06-22T00:49:00;1.40;1.00;0.53
64861;PMS5003;62652;42.274;-71.436;2023-06-22T00:50:00;1.10;1.10;0.87
64861;PMS5003;62652;42.274;-71.436;2023-06-22T00:51:01;0.97;0.97;0.20
64861;PMS5003;62652;42.274;-71.436;2023-06-22T00:52:00;1.67;1.67;0.73
64861;PMS5003;62652;42.274;-71.436;2023-06-22T00:53:01;1.27;1.27;0.77
64861;PMS5003;62652;42.274;-71.436;2023-06-22T00:54:00;1.00;0.70;0.57
64861;PMS5003;62652;42.274;-71.436;2023-06-22T00:55:01;0.93;0.93;0.93
64861;PMS5003;62652;42.274;-71.436;2023-06-22T00:56:00;2.10;0.67;0.53
64861;PMS5003;62652;42.274;-71.436;2023-06-22T00:57:00;0.50;0.50;0.00
64861;PMS5003;62652;42.274;-71.436;2023-06-22T00:58:00;0.93;0.93;0.70
64861;PMS5003;62652;42.274;-71.436;2023-06-22T00:59:00;2.53;2.53;1.67
64861;PMS5003;62652;42.274;-71.436;2023-06-22T01:00:00;1.03;1.03;0.30
64861;PMS5003;62652;42.274;-71.436;2023-06-22T01:01:00;1.00;1.00;0.00
64861;PMS5003;62652;42.274;-71.436;2023-06-22T01:02:00;1.70;1.03;0.90
64861;PMS5003;62652;42.274;-71.436;2023-06-22T01:03:01;1.87;1.87;1.00
64861;PMS5003;62652;42.274;-71.436;2023-06-22T01:04:00;0.77;0.57;0.00
64861;PMS5003;62652;42.274;-71.436;2023-06-22T01:05:00;0.83;0.83;0.07
64861;PMS5003;62652;42.274;-71.436;2023-06-22T01:06:02;1.53;1.53;0.87
64861;PMS5003;62652;42.274;-71.436;2023-06-22T01:07:02;1.83;1.83;1.10
64861;PMS5003;62652;42.274;-71.436;2023-06-22T01:08:04;0.17;0.17;0.07
64861;PMS5003;62652;42.274;-71.436;2023-06-22T01:09:02;1.43;1.43;0.93
64861;PMS5003;62652;42.274;-71.436;2023-06-22T01:10:03;1.90;1.53;0.33
64861;PMS5003;62652;42.274;-71.436;2023-06-22T01:11:05;1.00;1.00;0.63
64861;PMS5003;62652;42.274;-71.436;2023-06-22T01:12:01;1.07;1.07;0.70
64861;PMS5003;62652;42.274;-71.436;2023-06-22T01:13:01;1.97;1.97;1.00
64861;PMS5003;62652;42.274;-71.436;2023-06-22T01:14:02;1.07;1.07;0.83
64861;PMS5003;62652;42.274;-71.436;2023-06-22T01:15:04;1.00;1.00;0.10
64861;PMS5003;62652;42.274;-71.436;2023-06-22T01:16:01;1.83;1.73;0.93
64861;PMS5003;62652;42.274;-71.436;2023-06-22T01:17:00;1.47;1.13;0.33
64861;PMS5003;62652;42.274;-71.436;2023-06-22T01:18:00;1.17;0.90;0.20
64861;PMS5003;62652;42.274;-71.436;2023-06-22T01:19:01;0.73;0.73;0.33
64861;PMS5003;62652;42.274;-71.436;2023-06-22T01:20:00;1.40;1.40;0.97
64861;PMS5003;62652;42.274;-71.436;2023-06-22T01:21:00;0.80;0.70;0.20
64861;PMS5003;62652;42.274;-71.436;2023-06-22T01:22:00;1.87;1.87;1.07
64861;PMS5003;62652;42.274;-71.436;2023-06-22T01:23:07;2.23;1.83;1.43
64861;PMS5003;62652;42.274;-71.436;2023-06-22T01:24:04;1.70;1.00;0.33
64861;PMS5003;62652;42.274;-71.436;2023-06-22T01:25:04;2.60;1.90;0.90
64861;PMS5003;62652;42.274;-71.436;2023-06-22T01:26:05;2.30;1.53;0.73
64861;PMS5003;62652;42.274;-71.436;2023-06-22T01:27:05;0.57;0.57;0.07
64861;PMS5003;62652;42.274;-71.436;2023-06-22T01:28:03;0.37;0.37;0.30
64861;PMS5003;62652;42.274;-71.436;2023-06-22T01:29:00;1.93;1.93;1.27
64861;PMS5003;62652;42.274;-71.436;2023-06-22T01:30:00;2.90;2.40;1.90
64861;PMS5003;62652;42.274;-71.436;2023-06-22T01:31:01;2.30;2.10;1.10
64861;PMS5003;62652;42.274;-71.436;2023-06-22T01:32:00;1.23;1.17;0.40
64861;PMS5003;62652;42.274;-71.436;2023-06-22T01:33:00;2.00;2.00;1.00
64861;PMS5003;62652;42.274;-71.436;2023-06-22T01:34:01;2.67;2.57;1.47
64861;PMS5003;62652;42.274;-71.436;2023-06-22T01:35:01;3.00;3.00;2.00
64861;PMS5003;62652;42.274;-71.436;2023-06-22T01:36:01;2.80;2.50;1.13
64861;PMS5003;62652;42.274;-71.436;2023-06-22T01:37:00;2.17;1.97;1.87
64861;PMS5003;62652;42.274;-71.436;2023-06-22T01:38:00;2.10;2.10;0.77
64861;PMS5003;62652;42.274;-71.436;2023-06-22T01:39:00;1.67;1.63;1.20
64861;PMS5003;62652;42.274;-71.436;2023-06-22T01:40:00;3.97;3.37;2.03
64861;PMS5003;62652;42.274;-71.436;2023-06-22T01:41:00;2.50;2.37;1.37
64861;PMS5003;62652;42.274;-71.436;2023-06-22T01:42:01;1.87;1.87;1.57
64861;PMS5003;62652;42.274;-71.436;2023-06-22T01:43:00;1.67;1.67;0.83
64861;PMS5003;62652;42.274;-71.436;2023-06-22T01:44:00;2.63;2.00;1.00
64861;PMS5003;62652;42.274;-71.436;2023-06-22T01:45:00;1.37;1.37;1.00
64861;PMS5003;62652;42.274;-71.436;2023-06-22T01:46:01;1.17;1.17;0.27
64861;PMS5003;62652;42.274;-71.436;2023-06-22T01:47:00;2.63;2.17;0.97
64861;PMS5003;62652;42.274;-71.436;2023-06-22T01:48:00;1.67;1.67;1.37
64861;PMS5003;62652;42.274;-71.436;2023-06-22T01:49:00;2.30;2.30;1.00
64861;PMS5003;62652;42.274;-71.436;2023-06-22T01:50:00;1.80;1.70;1.00
64861;PMS5003;62652;42.274;-71.436;2023-06-22T01:51:00;1.37;1.37;0.97
64861;PMS5003;62652;42.274;-71.436;2023-06-22T01:52:00;1.73;1.73;0.73
64861;PMS5003;62652;42.274;-71.436;2023-06-22T01:53:01;1.67;1.67;1.43
64861;PMS5003;62652;42.274;-71.436;2023-06-22T01:54:01;1.23;1.23;1.00
64861;PMS5003;62652;42.274;-71.436;2023-06-22T01:55:00;3.10;3.00;2.00
64861;PMS5003;62652;42.274;-71.436;2023-06-22T01:56:00;1.80;1.53;0.53
64861;PMS5003;62652;42.274;-71.436;2023-06-22T01:57:00;2.40;1.80;0.80
64861;PMS5003;62652;42.274;-71.436;2023-06-22T01:58:00;2.23;2.23;0.90
64861;PMS5003;62652;42.274;-71.436;2023-06-22T01:59:02;2.30;1.70;1.07
64861;PMS5003;62652;42.274;-71.436;2023-06-22T02:00:02;2.87;2.53;1.77
64861;PMS5003;62652;42.274;-71.436;2023-06-22T02:01:03;2.07;2.07;1.50
64861;PMS5003;62652;42.274;-71.436;2023-06-22T02:02:01;0.63;0.63;0.13
64861;PMS5003;62652;42.274;-71.436;2023-06-22T02:03:01;2.37;2.17;1.47
64861;PMS5003;62652;42.274;-71.436;2023-06-22T02:04:02;2.20;2.20;2.00
64861;PMS5003;62652;42.274;-71.436;2023-06-22T02:05:02;2.20;2.20;1.90
64861;PMS5003;62652;42.274;-71.436;2023-06-22T02:06:02;2.07;1.77;0.77
64861;PMS5003;62652;42.274;-71.436;2023-06-22T02:07:00;1.90;1.90;1.40
64861;PMS5003;62652;42.274;-71.436;2023-06-22T02:08:02;2.07;1.50;1.03
64861;PMS5003;62652;42.274;-71.436;2023-06-22T02:09:01;2.03;2.00;1.37
64861;PMS5003;62652;42.274;-71.436;2023-06-22T02:10:00;2.27;1.87;1.07
64861;PMS5003;62652;42.274;-71.436;2023-06-22T02:11:00;0.90;0.90;0.80
64861;PMS5003;62652;42.274;-71.436;2023-06-22T02:12:00;2.30;2.20;1.20
64861;PMS5003;62652;42.274;-71.436;2023-06-22T02:13:01;2.23;2.23;1.23
64861;PMS5003;62652;42.274;-71.436;2023-06-22T02:14:00;1.57;1.30;1.00
64861;PMS5003;62652;42.274;-71.436;2023-06-22T02:15:01;1.47;1.47;0.80
64861;PMS5003;62652;42.274;-71.436;2023-06-22T02:16:00;1.97;1.47;1.10
64861;PMS5003;62652;42.274;-71.436;2023-06-22T02:17:00;2.90;2.23;1.40
64861;PMS5003;62652;42.274;-71.436;2023-06-22T02:18:00;3.20;3.10;1.00
64861;PMS5003;62652;42.274;-71.436;2023-06-22T02:19:01;2.73;2.10;1.13
64861;PMS5003;62652;42.274;-71.436;2023-06-22T02:20:01;2.83;2.20;0.83
64861;PMS5003;62652;42.274;-71.436;2023-06-22T02:21:00;2.03;2.03;1.47
64861;PMS5003;62652;42.274;-71.436;2023-06-22T02:22:00;1.77;1.77;1.13
64861;PMS5003;62652;42.274;-71.436;2023-06-22T02:23:00;2.63;2.00;1.00
64861;PMS5003;62652;42.274;-71.436;2023-06-22T02:24:00;3.07;3.07;1.73
64861;PMS5003;62652;42.274;-71.436;2023-06-22T02:25:00;2.30;2.30;1.07
64861;PMS5003;62652;42.274;-71.436;2023-06-22T02:26:01;3.20;3.03;2.77
64861;PMS5003;62652;42.274;-71.436;2023-06-22T02:27:01;4.13;3.87;2.67
64861;PMS5003;62652;42.274;-71.436;2023-06-22T02:28:00;6.30;5.10;2.80
64861;PMS5003;62652;42.274;-71.436;2023-06-22T02:29:00;3.73;3.20;2.00
64861;PMS5003;62652;42.274;-71.436;2023-06-22T02:30:00;4.80;4.40;3.30
64861;PMS5003;62652;42.274;-71.436;2023-06-22T02:31:00;3.87;3.87;2.27
64861;PMS5003;62652;42.274;-71.436;2023-06-22T02:32:00;3.77;3.77;2.87
64861;PMS5003;62652;42.274;-71.436;2023-06-22T02:33:00;5.37;5.33;3.67
64861;PMS5003;62652;42.274;-71.436;2023-06-22T02:34:00;4.43;4.23;3.10
64861;PMS5003;62652;42.274;-71.436;2023-06-22T02:35:00;4.80;4.80;3.43
64861;PMS5003;62652;42.274;-71.436;2023-06-22T02:36:00;3.77;3.70;2.70
64861;PMS5003;62652;42.274;-71.436;2023-06-22T02:37:00;4.57;3.43;2.23
64861;PMS5003;62652;42.274;-71.436;2023-06-22T02:38:01;4.67;4.67;2.67
64861;PMS5003;62652;42.274;-71.436;2023-06-22T02:39:00;5.17;4.70;3.67
64861;PMS5003;62652;42.274;-71.436;2023-06-22T02:40:00;6.27;5.90;4.00
64861;PMS5003;62652;42.274;-71.436;2023-06-22T02:41:00;8.10;6.23;4.07
64861;PMS5003;62652;42.274;-71.436;2023-06-22T02:42:00;6.50;6.30;4.40
64861;PMS5003;62652;42.274;-71.436;2023-06-22T02:43:01;6.27;5.47;4.57
64861;PMS5003;62652;42.274;-71.436;2023-06-22T02:44:00;7.40;7.40;5.80
64861;PMS5003;62652;42.274;-71.436;2023-06-22T02:45:00;7.03;6.73;5.60
64861;PMS5003;62652;42.274;-71.436;2023-06-22T02:46:00;7.47;6.50;4.97
64861;PMS5003;62652;42.274;-71.436;2023-06-22T02:47:00;5.83;5.43;3.37
64861;PMS5003;62652;42.274;-71.436;2023-06-22T02:48:01;5.13;4.87;3.87
64861;PMS5003;62652;42.274;-71.436;2023-06-22T02:49:00;3.70;3.70;2.73
64861;PMS5003;62652;42.274;-71.436;2023-06-22T02:50:00;3.70;3.70;1.93
64861;PMS5003;62652;42.274;-71.436;2023-06-22T02:51:00;3.83;3.83;2.73
64861;PMS5003;62652;42.274;-71.436;2023-06-22T02:52:00;2.10;2.10;1.27
64861;PMS5003;62652;42.274;-71.436;2023-06-22T02:53:00;2.13;2.00;1.50
64861;PMS5003;62652;42.274;-71.436;2023-06-22T02:54:00;2.27;1.80;0.73
64861;PMS5003;62652;42.274;-71.436;2023-06-22T02:55:00;2.00;2.00;1.00
64861;PMS5003;62652;42.274;-71.436;2023-06-22T02:56:01;2.47;2.37;1.00
64861;PMS5003;62652;42.274;-71.436;2023-06-22T02:57:00;2.33;1.87;1.33
64861;PMS5003;62652;42.274;-71.436;2023-06-22T02:58:00;1.70;1.70;0.90
64861;PMS5003;62652;42.274;-71.436;2023-06-22T02:59:00;0.77;0.77;0.67
64861;PMS5003;62652;42.274;-71.436;2023-06-22T03:00:02;2.40;1.53;0.53
64861;PMS5003;62652;42.274;-71.436;2023-06-22T03:01:00;1.23;1.07;0.27
64861;PMS5003;62652;42.274;-71.436;2023-06-22T03:02:00;0.47;0.37;0.13
64861;PMS5003;62652;42.274;-71.436;2023-06-22T03:03:00;1.23;1.23;1.07
64861;PMS5003;62652;42.274;-71.436;2023-06-22T03:04:00;2.83;2.63;1.63
64861;PMS5003;62652;42.274;-71.436;2023-06-22T03:05:00;2.50;2.50;1.50
64861;PMS5003;62652;42.274;-71.436;2023-06-22T03:06:00;1.57;1.57;0.73
64861;PMS5003;62652;42.274;-71.436;2023-06-22T03:07:00;2.33;2.00;1.17
64861;PMS5003;62652;42.274;-71.436;2023-06-22T03:08:00;2.90;2.57;1.87
64861;PMS5003;62652;42.274;-71.436;2023-06-22T03:09:01;3.20;2.53;1.53
64861;PMS5003;62652;42.274;-71.436;2023-06-22T03:10:01;3.27;2.90;1.47
64861;PMS5003;62652;42.274;-71.436;2023-06-22T03:11:00;3.50;3.50;1.90
64861;PMS5003;62652;42.274;-71.436;2023-06-22T03:12:00;3.50;3.50;2.40
64861;PMS5003;62652;42.274;-71.436;2023-06-22T03:13:00;1.87;1.77;1.20
64861;PMS5003;62652;42.274;-71.436;2023-06-22T03:14:00;2.27;2.27;2.00
64861;PMS5003;62652;42.274;-71.436;2023-06-22T03:15:00;2.37;2.30;1.93
64861;PMS5003;62652;42.274;-71.436;2023-06-22T03:16:00;4.30;3.83;2.93
64861;PMS5003;62652;42.274;-71.436;2023-06-22T03:17:00;3.20;2.87;2.10
64861;PMS5003;62652;42.274;-71.436;2023-06-22T03:18:00;4.27;4.27;3.13
64861;PMS5003;62652;42.274;-71.436;2023-06-22T03:19:00;2.80;2.80;1.93
64861;PMS5003;62652;42.274;-71.436;2023-06-22T03:20:01;2.23;2.03;1.00
64861;PMS5003;62652;42.274;-71.436;2023-06-22T03:21:01;3.80;3.13;1.97
64861;PMS5003;62652;42.274;-71.436;2023-06-22T03:22:00;4.77;4.77;2.97
64861;PMS5003;62652;42.274;-71.436;2023-06-22T03:23:00;4.80;4.07;2.47
64861;PMS5003;62652;42.274;-71.436;2023-06-22T03:24:00;3.93;3.93;2.40
64861;PMS5003;62652;42.274;-71.436;2023-06-22T03:25:00;5.17;3.80;3.00
64861;PMS5003;62652;42.274;-71.436;2023-06-22T03:26:01;3.20;3.20;2.07
64861;PMS5003;62652;42.274;-71.436;2023-06-22T03:27:00;2.90;2.80;2.10
64861;PMS5003;62652;42.274;-71.436;2023-06-22T03:28:00;3.00;3.00;2.10
64861;PMS5003;62652;42.274;-71.436;2023-06-22T03:29:00;2.47;2.47;1.90
64861;PMS5003;62652;42.274;-71.436;2023-06-22T03:30:00;3.37;2.87;1.83
64861;PMS5003;62652;42.274;-71.436;2023-06-22T03:31:00;2.57;2.57;1.47
64861;PMS5003;62652;42.274;-71.436;2023-06-22T03:32:01;2.67;1.90;0.93
64861;PMS5003;62652;42.274;-71.436;2023-06-22T03:33:00;1.47;1.47;0.83
64861;PMS5003;62652;42.274;-71.436;2023-06-22T03:34:00;1.27;1.10;0.80
64861;PMS5003;62652;42.274;-71.436;2023-06-22T03:35:01;1.67;1.67;0.67
64861;PMS5003;62652;42.274;-71.436;2023-06-22T03:36:00;1.53;1.43;0.77
64861;PMS5003;62652;42.274;-71.436;2023-06-22T03:37:00;1.50;1.50;0.70
64861;PMS5003;62652;42.274;-71.436;2023-06-22T03:38:00;1.60;1.53;0.73
64861;PMS5003;62652;42.274;-71.436;2023-06-22T03:39:00;1.20;1.20;0.87
64861;PMS5003;62652;42.274;-71.436;2023-06-22T03:40:00;3.00;2.83;2.03
64861;PMS5003;62652;42.274;-71.436;2023-06-22T03:41:00;2.20;2.20;1.40
64861;PMS5003;62652;42.274;-71.436;2023-06-22T03:42:00;2.23;1.97;1.33
64861;PMS5003;62652;42.274;-71.436;2023-06-22T03:43:00;2.70;2.30;1.10
64861;PMS5003;62652;42.274;-71.436;2023-06-22T03:44:00;2.43;2.00;1.00
64861;PMS5003;62652;42.274;-71.436;2023-06-22T03:45:00;2.10;2.10;1.00
64861;PMS5003;62652;42.274;-71.436;2023-06-22T03:46:00;1.57;1.57;1.03
64861;PMS5003;62652;42.274;-71.436;2023-06-22T03:47:00;1.83;1.83;1.17
64861;PMS5003;62652;42.274;-71.436;2023-06-22T03:48:00;2.20;2.20;1.00
64861;PMS5003;62652;42.274;-71.436;2023-06-22T03:49:00;1.60;1.50;1.00
64861;PMS5003;62652;42.274;-71.436;2023-06-22T03:50:00;2.43;2.43;1.10
64861;PMS5003;62652;42.274;-71.436;2023-06-22T03:51:01;0.80;0.80;0.37
64861;PMS5003;62652;42.274;-71.436;2023-06-22T03:52:00;2.83;1.87;0.87
64861;PMS5003;62652;42.274;-71.436;2023-06-22T03:53:00;1.13;1.13;0.90
64861;PMS5003;62652;42.274;-71.436;2023-06-22T03:54:00;1.83;1.83;1.03
64861;PMS5003;62652;42.274;-71.436;2023-06-22T03:55:00;2.47;2.17;1.27
64861;PMS5003;62652;42.274;-71.436;2023-06-22T03:56:00;1.17;1.03;0.87
64861;PMS5003;62652;42.274;-71.436;2023-06-22T03:57:00;3.40;3.00;1.97
64861;PMS5003;62652;42.274;-71.436;2023-06-22T03:58:00;1.73;1.67;0.83
64861;PMS5003;62652;42.274;-71.436;2023-06-22T03:59:00;2.23;2.00;1.43
64861;PMS5003;62652;42.274;-71.436;2023-06-22T04:00:00;3.40;2.00;1.53
64861;PMS5003;62652;42.274;-71.436;2023-06-22T04:01:00;3.07;2.63;1.63
64861;PMS5003;62652;42.274;-71.436;2023-06-22T04:02:00;5.07;4.83;3.00
64861;PMS5003;62652;42.274;-71.436;2023-06-22T04:03:00;7.93;7.80;6.50
64861;PMS5003;62652;42.274;-71.436;2023-06-22T04:04:00;12.57;11.90;8.37
64861;PMS5003;62652;42.274;-71.436;2023-06-22T04:05:01;12.17;11.53;8.33
64861;PMS5003;62652;42.274;-71.436;2023-06-22T04:06:00;13.90;13.60;9.80
64861;PMS5003;62652;42.274;-71.436;2023-06-22T04:07:00;14.53;13.90;9.90
64861;PMS5003;62652;42.274;-71.436;2023-06-22T04:08:00;12.83;12.27;8.60
64861;PMS5003;62652;42.274;-71.436;2023-06-22T04:09:00;12.63;11.53;8.37
64861;PMS5003;62652;42.274;-71.436;2023-06-22T04:10:00;10.27;10.27;6.43
64861;PMS5003;62652;42.274;-71.436;2023-06-22T04:11:00;9.30;9.10;6.10
64861;PMS5003;62652;42.274;-71.436;2023-06-22T04:12:01;8.20;7.97;6.00
64861;PMS5003;62652;42.274;-71.436;2023-06-22T04:13:00;5.13;5.13;4.10
64861;PMS5003;62652;42.274;-71.436;2023-06-22T04:14:00;5.40;5.23;3.67
64861;PMS5003;62652;42.274;-71.436;2023-06-22T04:15:00;5.77;5.77;4.87
64861;PMS5003;62652;42.274;-71.436;2023-06-22T04:16:01;4.33;4.27;2.67
64861;PMS5003;62652;42.274;-71.436;2023-06-22T04:17:00;3.93;3.93;2.33
64861;PMS5003;62652;42.274;-71.436;2023-06-22T04:18:00;3.10;3.10;2.63
64861;PMS5003;62652;42.274;-71.436;2023-06-22T04:19:00;4.37;3.90;2.70
64861;PMS5003;62652;42.274;-71.436;2023-06-22T04:20:00;3.67;3.60;2.80
64861;PMS5003;62652;42.274;-71.436;2023-06-22T04:21:01;4.50;4.27;2.70
64861;PMS5003;62652;42.274;-71.436;2023-06-22T04:22:00;4.03;4.03;3.00
64861;PMS5003;62652;42.274;-71.436;2023-06-22T04:23:00;3.83;3.83;2.10
64861;PMS5003;62652;42.274;-71.436;2023-06-22T04:24:00;4.10;4.10;2.80
64861;PMS5003;62652;42.274;-71.436;2023-06-22T04:25:00;5.63;5.53;4.43
64861;PMS5003;62652;42.274;-71.436;2023-06-22T04:26:00;5.87;5.77;3.87
64861;PMS5003;62652;42.274;-71.436;2023-06-22T04:27:01;6.90;6.03;4.07
64861;PMS5003;62652;42.274;-71.436;2023-06-22T04:28:00;5.57;5.57;3.57
64861;PMS5003;62652;42.274;-71.436;2023-06-22T04:29:00;6.03;6.03;4.50
64861;PMS5003;62652;42.274;-71.436;2023-06-22T04:30:00;5.37;5.30;3.13
64861;PMS5003;62652;42.274;-71.436;2023-06-22T04:31:01;5.90;5.53;3.73
64861;PMS5003;62652;42.274;-71.436;2023-06-22T04:32:00;5.23;5.03;3.67
64861;PMS5003;62652;42.274;-71.436;2023-06-22T04:33:00;6.13;6.03;3.67
64861;PMS5003;62652;42.274;-71.436;2023-06-22T04:34:00;4.73;4.73;3.10
64861;PMS5003;62652;42.274;-71.436;2023-06-22T04:35:00;4.60;3.37;2.17
64861;PMS5003;62652;42.274;-71.436;2023-06-22T04:36:00;4.97;4.50;3.00
64861;PMS5003;62652;42.274;-71.436;2023-06-22T04:37:00;3.97;3.30;2.17
64861;PMS5003;62652;42.274;-71.436;2023-06-22T04:38:01;4.23;3.77;2.13
64861;PMS5003;62652;42.274;-71.436;2023-06-22T04:39:00;3.07;3.07;1.77
64861;PMS5003;62652;42.274;-71.436;2023-06-22T04:40:00;2.67;2.53;1.43
64861;PMS5003;62652;42.274;-71.436;2023-06-22T04:41:00;3.57;3.10;2.30
64861;PMS5003;62652;42.274;-71.436;2023-06-22T04:42:00;2.77;2.47;1.27
64861;PMS5003;62652;42.274;-71.436;2023-06-22T04:43:00;2.73;2.73;1.33
64861;PMS5003;62652;42.274;-71.436;2023-06-22T04:44:00;2.83;2.80;1.90
64861;PMS5003;62652;42.274;-71.436;2023-06-22T04:45:00;2.73;2.73;2.03
64861;PMS5003;62652;42.274;-71.436;2023-06-22T04:46:00;3.03;2.63;1.40
64861;PMS5003;62652;42.274;-71.436;2023-06-22T04:47:01;1.97;1.53;0.73
64861;PMS5003;62652;42.274;-71.436;2023-06-22T04:48:00;3.93;3.93;1.87
64861;PMS5003;62652;42.274;-71.436;2023-06-22T04:49:01;3.07;2.90;2.00
64861;PMS5003;62652;42.274;-71.436;2023-06-22T04:50:00;2.10;2.10;1.23
64861;PMS5003;62652;42.274;-71.436;2023-06-22T04:51:01;2.23;1.67;0.57
64861;PMS5003;62652;42.274;-71.436;2023-06-22T04:52:01;2.20;2.20;1.37
64861;PMS5003;62652;42.274;-71.436;2023-06-22T04:53:00;3.77;3.77;1.77
64861;PMS5003;62652;42.274;-71.436;2023-06-22T04:54:00;3.43;3.10;2.00
64861;PMS5003;62652;42.274;-71.436;2023-06-22T04:55:00;3.20;3.20;2.00
64861;PMS5003;62652;42.274;-71.436;2023-06-22T04:56:00;2.50;2.50;1.70
64861;PMS5003;62652;42.274;-71.436;2023-06-22T04:57:00;2.23;2.23;1.60
64861;PMS5003;62652;42.274;-71.436;2023-06-22T04:58:00;2.67;2.67;1.23
64861;PMS5003;62652;42.274;-71.436;2023-06-22T04:59:01;2.73;2.73;1.27
64861;PMS5003;62652;42.274;-71.436;2023-06-22T05:00:01;2.67;2.57;1.53
64861;PMS5003;62652;42.274;-71.436;2023-06-22T05:01:00;2.30;2.17;1.33
64861;PMS5003;62652;42.274;-71.436;2023-06-22T05:02:01;2.43;2.20;1.43
64861;PMS5003;62652;42.274;-71.436;2023-06-22T05:03:00;3.80;3.10;1.83
64861;PMS5003;62652;42.274;-71.436;2023-06-22T05:04:00;3.77;3.37;2.10
64861;PMS5003;62652;42.274;-71.436;2023-06-22T05:05:00;2.27;2.27;2.00
64861;PMS5003;62652;42.274;-71.436;2023-06-22T05:06:00;2.83;2.83;1.70
64861;PMS5003;62652;42.274;-71.436;2023-06-22T05:07:01;2.60;2.23;1.70
64861;PMS5003;62652;42.274;-71.436;2023-06-22T05:08:00;2.83;2.07;0.97
64861;PMS5003;62652;42.274;-71.436;2023-06-22T05:09:00;2.77;2.77;1.90
64861;PMS5003;62652;42.274;-71.436;2023-06-22T05:10:00;3.20;2.70;1.57
64861;PMS5003;62652;42.274;-71.436;2023-06-22T05:11:00;2.93;2.80;1.73
64861;PMS5003;62652;42.274;-71.436;2023-06-22T05:12:01;3.20;2.87;1.77
64861;PMS5003;62652;42.274;-71.436;2023-06-22T05:13:00;2.47;2.00;1.70
64861;PMS5003;62652;42.274;-71.436;2023-06-22T05:14:00;1.97;1.47;0.67
64861;PMS5003;62652;42.274;-71.436;2023-06-22T05:15:00;2.50;2.03;1.13
64861;PMS5003;62652;42.274;-71.436;2023-06-22T05:16:00;2.83;2.37;1.47
64861;PMS5003;62652;42.274;-71.436;2023-06-22T05:17:00;4.50;2.67;1.17
64861;PMS5003;62652;42.274;-71.436;2023-06-22T05:18:00;1.33;1.33;0.77
64861;PMS5003;62652;42.274;-71.436;2023-06-22T05:19:00;3.67;2.80;1.80
64861;PMS5003;62652;42.274;-71.436;2023-06-22T05:20:00;2.47;2.47;1.77
64861;PMS5003;62652;42.274;-71.436;2023-06-22T05:21:00;2.00;2.00;1.87
64861;PMS5003;62652;42.274;-71.436;2023-06-22T05:22:01;2.23;2.23;1.50
64861;PMS5003;62652;42.274;-71.436;2023-06-22T05:23:00;2.40;2.40;1.63
64861;PMS5003;62652;42.274;-71.436;2023-06-22T05:24:00;2.03;2.03;1.03
64861;PMS5003;62652;42.274;-71.436;2023-06-22T05:25:00;2.60;2.40;1.50
64861;PMS5003;62652;42.274;-71.436;2023-06-22T05:26:00;2.97;2.97;1.23
64861;PMS5003;62652;42.274;-71.436;2023-06-22T05:27:00;3.47;2.53;1.50
64861;PMS5003;62652;42.274;-71.436;2023-06-22T05:28:00;2.00;1.90;1.00
64861;PMS5003;62652;42.274;-71.436;2023-06-22T05:29:01;2.77;2.77;1.90
64861;PMS5003;62652;42.274;-71.436;2023-06-22T05:30:00;2.63;2.37;0.67
64861;PMS5003;62652;42.274;-71.436;2023-06-22T05:31:00;2.47;2.47;1.87
64861;PMS5003;62652;42.274;-71.436;2023-06-22T05:32:00;2.07;2.07;1.57
64861;PMS5003;62652;42.274;-71.436;2023-06-22T05:33:01;3.10;3.10;1.90
64861;PMS5003;62652;42.274;-71.436;2023-06-22T05:34:00;3.07;2.03;1.63
64861;PMS5003;62652;42.274;-71.436;2023-06-22T05:35:00;2.03;2.03;1.10
64861;PMS5003;62652;42.274;-71.436;2023-06-22T05:36:00;2.50;2.20;1.37
64861;PMS5003;62652;42.274;-71.436;2023-06-22T05:37:01;2.13;2.13;0.83
64861;PMS5003;62652;42.274;-71.436;2023-06-22T05:38:00;3.27;3.27;1.47
64861;PMS5003;62652;42.274;-71.436;2023-06-22T05:39:09;3.33;2.40;1.00
64861;PMS5003;62652;42.274;-71.436;2023-06-22T05:40:00;3.00;2.40;1.63